Terminal Aerodrome Forecast
Issued by NWS

Home | Current Version | Previous Version | Graphics & Text | Print | Product List | Glossary On
Versions: 1 2 3 4 5 6 7 8 9 10 11 12 13 14 15 16 17 18
000
FTUS42 KMHX 270928 AAB
TAFPGV
TAF AMD
KPGV 270928Z 2709/2806 00000KT 2SM BR SCT002
      TEMPO 2709/2712 1/4SM FG VV002
     FM271300 33006KT P6SM SCT060
      AMD LTD TO CLD VIS AND WIND=

USA.gov is the U.S. government's official web portal to all federal, state and local government web resources and services.